sensor_id;sensor_type;location;lat;lon;timestamp;P1;durP1;ratioP1;P2;durP2;ratioP2
45039;SDS011;30778;53.574;7.770;2023-12-14T09:06:13;9.85;;;4.38;;
45039;SDS011;30778;53.574;7.770;2023-12-14T09:08:40;14.63;;;3.92;;
45039;SDS011;30778;53.574;7.770;2023-12-14T09:11:06;16.80;;;5.18;;
45039;SDS011;30778;53.574;7.770;2023-12-14T09:13:31;8.65;;;4.10;;
45039;SDS011;30778;53.574;7.770;2023-12-14T09:15:57;10.95;;;4.13;;
45039;SDS011;30778;53.574;7.770;2023-12-14T09:18:22;11.07;;;5.32;;
45039;SDS011;30778;53.574;7.770;2023-12-14T09:20:49;7.30;;;3.75;;
45039;SDS011;30778;53.574;7.770;2023-12-14T09:23:15;12.63;;;4.57;;
45039;SDS011;30778;53.574;7.770;2023-12-14T09:25:41;15.05;;;4.80;;
45039;SDS011;30778;53.574;7.770;2023-12-14T09:28:07;13.48;;;5.45;;
45039;SDS011;30778;53.574;7.770;2023-12-14T09:30:33;17.75;;;6.35;;
45039;SDS011;30778;53.574;7.770;2023-12-14T09:32:58;13.75;;;5.65;;
45039;SDS011;30778;53.574;7.770;2023-12-14T09:35:24;12.65;;;5.25;;
45039;SDS011;30778;53.574;7.770;2023-12-14T09:37:49;15.48;;;5.07;;
45039;SDS011;30778;53.574;7.770;2023-12-14T09:40:15;6.25;;;4.13;;
45039;SDS011;30778;53.574;7.770;2023-12-14T09:42:42;8.57;;;4.25;;
45039;SDS011;30778;53.574;7.770;2023-12-14T09:45:08;6.15;;;3.80;;
45039;SDS011;30778;53.574;7.770;2023-12-14T09:47:37;13.13;;;5.03;;
45039;SDS011;30778;53.574;7.770;2023-12-14T09:50:03;8.98;;;4.38;;
45039;SDS011;30778;53.574;7.770;2023-12-14T09:52:30;9.80;;;4.65;;
45039;SDS011;30778;53.574;7.770;2023-12-14T09:54:56;14.38;;;5.40;;
45039;SDS011;30778;53.574;7.770;2023-12-14T09:57:21;7.28;;;4.30;;
45039;SDS011;30778;53.574;7.770;2023-12-14T09:59:51;7.95;;;4.25;;
45039;SDS011;30778;53.574;7.770;2023-12-14T10:02:24;13.07;;;4.97;;
45039;SDS011;30778;53.574;7.770;2023-12-14T10:04:51;14.70;;;4.50;;
45039;SDS011;30778;53.574;7.770;2023-12-14T10:07:18;11.60;;;4.18;;
45039;SDS011;30778;53.574;7.770;2023-12-14T10:09:44;9.98;;;4.05;;
45039;SDS011;30778;53.574;7.770;2023-12-14T10:12:09;13.35;;;4.20;;
45039;SDS011;30778;53.574;7.770;2023-12-14T10:14:35;9.65;;;4.35;;
45039;SDS011;30778;53.574;7.770;2023-12-14T10:17:19;6.30;;;4.00;;
45039;SDS011;30778;53.574;7.770;2023-12-14T10:19:46;12.38;;;4.85;;
45039;SDS011;30778;53.574;7.770;2023-12-14T10:22:14;14.68;;;4.60;;
45039;SDS011;30778;53.574;7.770;2023-12-14T10:24:44;10.75;;;3.92;;
45039;SDS011;30778;53.574;7.770;2023-12-14T10:27:11;9.43;;;3.67;;
45039;SDS011;30778;53.574;7.770;2023-12-14T10:29:37;10.55;;;4.53;;
45039;SDS011;30778;53.574;7.770;2023-12-14T10:32:04;10.88;;;5.22;;
45039;SDS011;30778;53.574;7.770;2023-12-14T10:34:35;6.47;;;3.53;;
45039;SDS011;30778;53.574;7.770;2023-12-14T10:37:01;9.13;;;4.53;;
45039;SDS011;30778;53.574;7.770;2023-12-14T10:39:30;12.20;;;3.60;;
45039;SDS011;30778;53.574;7.770;2023-12-14T10:41:58;10.02;;;3.42;;
45039;SDS011;30778;53.574;7.770;2023-12-14T10:44:25;8.25;;;4.40;;
45039;SDS011;30778;53.574;7.770;2023-12-14T10:46:55;9.90;;;5.15;;
45039;SDS011;30778;53.574;7.770;2023-12-14T10:49:26;6.78;;;3.15;;
45039;SDS011;30778;53.574;7.770;2023-12-14T10:51:54;6.55;;;3.58;;
45039;SDS011;30778;53.574;7.770;2023-12-14T10:54:23;8.45;;;4.05;;
45039;SDS011;30778;53.574;7.770;2023-12-14T10:56:55;12.45;;;5.90;;
45039;SDS011;30778;53.574;7.770;2023-12-14T10:59:24;11.27;;;4.68;;
45039;SDS011;30778;53.574;7.770;2023-12-14T11:01:56;7.20;;;3.15;;
45039;SDS011;30778;53.574;7.770;2023-12-14T11:04:23;9.85;;;3.95;;
45039;SDS011;30778;53.574;7.770;2023-12-14T11:06:49;9.90;;;4.57;;
45039;SDS011;30778;53.574;7.770;2023-12-14T11:09:17;9.07;;;4.30;;
45039;SDS011;30778;53.574;7.770;2023-12-14T11:14:15;14.63;;;4.60;;
45039;SDS011;30778;53.574;7.770;2023-12-14T11:16:43;7.97;;;3.30;;
45039;SDS011;30778;53.574;7.770;2023-12-14T11:21:47;9.18;;;3.30;;
45039;SDS011;30778;53.574;7.770;2023-12-14T11:24:13;6.80;;;3.70;;
45039;SDS011;30778;53.574;7.770;2023-12-14T11:26:39;12.95;;;4.20;;
45039;SDS011;30778;53.574;7.770;2023-12-14T11:29:06;10.00;;;4.13;;
45039;SDS011;30778;53.574;7.770;2023-12-14T11:31:32;7.60;;;3.20;;
45039;SDS011;30778;53.574;7.770;2023-12-14T11:33:58;12.43;;;5.10;;
45039;SDS011;30778;53.574;7.770;2023-12-14T11:36:26;11.68;;;3.83;;
45039;SDS011;30778;53.574;7.770;2023-12-14T11:38:51;7.70;;;4.25;;
45039;SDS011;30778;53.574;7.770;2023-12-14T11:41:20;8.65;;;4.60;;
45039;SDS011;30778;53.574;7.770;2023-12-14T11:43:46;11.60;;;4.93;;
45039;SDS011;30778;53.574;7.770;2023-12-14T11:46:12;11.52;;;4.95;;
45039;SDS011;30778;53.574;7.770;2023-12-14T11:48:38;8.00;;;4.63;;
45039;SDS011;30778;53.574;7.770;2023-12-14T11:51:04;14.95;;;4.55;;
45039;SDS011;30778;53.574;7.770;2023-12-14T11:53:30;11.75;;;5.20;;
45039;SDS011;30778;53.574;7.770;2023-12-14T11:55:56;12.15;;;4.30;;
45039;SDS011;30778;53.574;7.770;2023-12-14T11:58:22;13.75;;;4.22;;
45039;SDS011;30778;53.574;7.770;2023-12-14T12:00:49;9.43;;;3.38;;
45039;SDS011;30778;53.574;7.770;2023-12-14T12:03:16;11.13;;;3.70;;
45039;SDS011;30778;53.574;7.770;2023-12-14T12:08:11;11.70;;;3.70;;
45039;SDS011;30778;53.574;7.770;2023-12-14T12:10:38;9.48;;;4.85;;
45039;SDS011;30778;53.574;7.770;2023-12-14T12:13:06;8.00;;;3.35;;
45039;SDS011;30778;53.574;7.770;2023-12-14T12:15:33;12.68;;;4.15;;
45039;SDS011;30778;53.574;7.770;2023-12-14T12:18:07;7.88;;;4.53;;
45039;SDS011;30778;53.574;7.770;2023-12-14T12:20:35;14.60;;;3.67;;
45039;SDS011;30778;53.574;7.770;2023-12-14T12:23:01;10.00;;;4.53;;
45039;SDS011;30778;53.574;7.770;2023-12-14T12:25:27;9.48;;;4.28;;
45039;SDS011;30778;53.574;7.770;2023-12-14T12:27:56;9.82;;;3.72;;
45039;SDS011;30778;53.574;7.770;2023-12-14T12:30:22;5.68;;;3.65;;
45039;SDS011;30778;53.574;7.770;2023-12-14T12:32:48;10.38;;;4.75;;
45039;SDS011;30778;53.574;7.770;2023-12-14T12:35:16;12.02;;;4.05;;
45039;SDS011;30778;53.574;7.770;2023-12-14T12:37:41;9.02;;;3.80;;
45039;SDS011;30778;53.574;7.770;2023-12-14T12:40:07;11.32;;;5.40;;
45039;SDS011;30778;53.574;7.770;2023-12-14T12:42:33;12.27;;;5.85;;
45039;SDS011;30778;53.574;7.770;2023-12-14T12:44:59;8.25;;;5.15;;
45039;SDS011;30778;53.574;7.770;2023-12-14T12:47:25;8.15;;;4.45;;
45039;SDS011;30778;53.574;7.770;2023-12-14T12:49:51;8.00;;;4.55;;
45039;SDS011;30778;53.574;7.770;2023-12-14T12:52:16;10.23;;;3.78;;
45039;SDS011;30778;53.574;7.770;2023-12-14T12:54:42;9.57;;;4.47;;
45039;SDS011;30778;53.574;7.770;2023-12-14T12:57:07;10.40;;;4.75;;
45039;SDS011;30778;53.574;7.770;2023-12-14T12:59:33;12.70;;;4.28;;
45039;SDS011;30778;53.574;7.770;2023-12-14T13:01:58;8.40;;;3.92;;
45039;SDS011;30778;53.574;7.770;2023-12-14T13:04:24;9.32;;;4.68;;
45039;SDS011;30778;53.574;7.770;2023-12-14T13:06:51;11.40;;;5.18;;
45039;SDS011;30778;53.574;7.770;2023-12-14T13:09:17;11.73;;;5.38;;
45039;SDS011;30778;53.574;7.770;2023-12-14T13:11:44;12.05;;;4.65;;
45039;SDS011;30778;53.574;7.770;2023-12-14T13:14:10;11.23;;;4.03;;
45039;SDS011;30778;53.574;7.770;2023-12-14T13:16:36;11.13;;;5.00;;
45039;SDS011;30778;53.574;7.770;2023-12-14T13:19:02;13.32;;;4.60;;
45039;SDS011;30778;53.574;7.770;2023-12-14T13:21:29;8.65;;;4.18;;
45039;SDS011;30778;53.574;7.770;2023-12-14T13:23:55;9.30;;;4.70;;
45039;SDS011;30778;53.574;7.770;2023-12-14T13:26:24;8.73;;;4.75;;
45039;SDS011;30778;53.574;7.770;2023-12-14T13:28:50;11.48;;;5.45;;
45039;SDS011;30778;53.574;7.770;2023-12-14T13:31:16;7.88;;;3.83;;
45039;SDS011;30778;53.574;7.770;2023-12-14T13:33:42;9.93;;;5.00;;
45039;SDS011;30778;53.574;7.770;2023-12-14T13:36:07;9.52;;;4.90;;
45039;SDS011;30778;53.574;7.770;2023-12-14T13:38:34;8.32;;;3.63;;
45039;SDS011;30778;53.574;7.770;2023-12-14T13:41:01;7.40;;;4.72;;
45039;SDS011;30778;53.574;7.770;2023-12-14T13:43:28;13.05;;;5.65;;
45039;SDS011;30778;53.574;7.770;2023-12-14T13:45:54;13.70;;;5.97;;
45039;SDS011;30778;53.574;7.770;2023-12-14T13:48:22;11.23;;;4.80;;
45039;SDS011;30778;53.574;7.770;2023-12-14T13:50:51;12.85;;;4.68;;
45039;SDS011;30778;53.574;7.770;2023-12-14T13:53:18;8.43;;;3.45;;
45039;SDS011;30778;53.574;7.770;2023-12-14T13:55:44;10.23;;;4.80;;
45039;SDS011;30778;53.574;7.770;2023-12-14T13:58:10;8.85;;;4.85;;
45039;SDS011;30778;53.574;7.770;2023-12-14T14:00:35;13.10;;;5.72;;
45039;SDS011;30778;53.574;7.770;2023-12-14T14:03:01;13.10;;;5.35;;
45039;SDS011;30778;53.574;7.770;2023-12-14T14:05:29;10.25;;;5.72;;
45039;SDS011;30778;53.574;7.770;2023-12-14T14:07:56;12.60;;;5.88;;
45039;SDS011;30778;53.574;7.770;2023-12-14T14:10:22;18.48;;;6.00;;
45039;SDS011;30778;53.574;7.770;2023-12-14T14:12:47;10.48;;;4.93;;
45039;SDS011;30778;53.574;7.770;2023-12-14T14:15:13;13.68;;;6.00;;
45039;SDS011;30778;53.574;7.770;2023-12-14T14:17:39;19.50;;;8.43;;
45039;SDS011;30778;53.574;7.770;2023-12-14T14:20:04;13.93;;;5.70;;
45039;SDS011;30778;53.574;7.770;2023-12-14T14:22:31;11.98;;;6.03;;
45039;SDS011;30778;53.574;7.770;2023-12-14T14:24:57;9.18;;;4.93;;
45039;SDS011;30778;53.574;7.770;2023-12-14T14:27:22;9.88;;;4.80;;
45039;SDS011;30778;53.574;7.770;2023-12-14T14:29:49;11.32;;;5.43;;
45039;SDS011;30778;53.574;7.770;2023-12-14T14:32:15;13.85;;;5.95;;
45039;SDS011;30778;53.574;7.770;2023-12-14T14:34:41;10.32;;;4.88;;
45039;SDS011;30778;53.574;7.770;2023-12-14T14:37:07;9.00;;;4.85;;
45039;SDS011;30778;53.574;7.770;2023-12-14T14:39:33;10.68;;;5.65;;
45039;SDS011;30778;53.574;7.770;2023-12-14T14:41:58;14.10;;;4.70;;
45039;SDS011;30778;53.574;7.770;2023-12-14T14:44:24;12.65;;;5.63;;
45039;SDS011;30778;53.574;7.770;2023-12-14T14:46:50;15.55;;;6.05;;
45039;SDS011;30778;53.574;7.770;2023-12-14T14:49:16;10.85;;;5.93;;
45039;SDS011;30778;53.574;7.770;2023-12-14T14:51:42;11.27;;;5.25;;
45039;SDS011;30778;53.574;7.770;2023-12-14T14:54:08;13.48;;;5.65;;
45039;SDS011;30778;53.574;7.770;2023-12-14T14:56:33;13.75;;;5.68;;
45039;SDS011;30778;53.574;7.770;2023-12-14T14:58:59;10.98;;;5.15;;
45039;SDS011;30778;53.574;7.770;2023-12-14T15:01:24;16.80;;;6.95;;
45039;SDS011;30778;53.574;7.770;2023-12-14T15:03:50;20.45;;;11.40;;
45039;SDS011;30778;53.574;7.770;2023-12-14T15:06:15;18.25;;;9.18;;
45039;SDS011;30778;53.574;7.770;2023-12-14T15:08:41;9.90;;;5.97;;
45039;SDS011;30778;53.574;7.770;2023-12-14T15:11:07;14.98;;;6.38;;
45039;SDS011;30778;53.574;7.770;2023-12-14T15:13:35;11.38;;;5.43;;
45039;SDS011;30778;53.574;7.770;2023-12-14T15:16:00;18.90;;;6.78;;
45039;SDS011;30778;53.574;7.770;2023-12-14T15:18:26;18.77;;;8.55;;
45039;SDS011;30778;53.574;7.770;2023-12-14T15:20:51;10.70;;;7.20;;
45039;SDS011;30778;53.574;7.770;2023-12-14T15:23:18;11.48;;;5.80;;
45039;SDS011;30778;53.574;7.770;2023-12-14T15:25:44;13.73;;;6.78;;
45039;SDS011;30778;53.574;7.770;2023-12-14T15:28:09;14.63;;;5.70;;
45039;SDS011;30778;53.574;7.770;2023-12-14T15:30:35;10.65;;;5.68;;
45039;SDS011;30778;53.574;7.770;2023-12-14T15:33:01;12.90;;;6.65;;
45039;SDS011;30778;53.574;7.770;2023-12-14T15:35:28;17.30;;;6.32;;
45039;SDS011;30778;53.574;7.770;2023-12-14T15:37:53;16.67;;;6.22;;
45039;SDS011;30778;53.574;7.770;2023-12-14T15:40:19;21.35;;;6.75;;
45039;SDS011;30778;53.574;7.770;2023-12-14T15:42:44;14.23;;;6.78;;
45039;SDS011;30778;53.574;7.770;2023-12-14T15:45:09;12.27;;;5.70;;
45039;SDS011;30778;53.574;7.770;2023-12-14T15:47:35;12.65;;;6.57;;
45039;SDS011;30778;53.574;7.770;2023-12-14T15:50:00;15.13;;;7.25;;
45039;SDS011;30778;53.574;7.770;2023-12-14T15:52:26;17.42;;;7.68;;
45039;SDS011;30778;53.574;7.770;2023-12-14T15:54:53;15.98;;;7.65;;
45039;SDS011;30778;53.574;7.770;2023-12-14T15:57:19;21.45;;;9.07;;
45039;SDS011;30778;53.574;7.770;2023-12-14T15:59:44;21.05;;;8.20;;
45039;SDS011;30778;53.574;7.770;2023-12-14T16:02:10;17.70;;;8.25;;
45039;SDS011;30778;53.574;7.770;2023-12-14T16:04:36;21.73;;;7.80;;
45039;SDS011;30778;53.574;7.770;2023-12-14T16:07:01;18.33;;;7.82;;
45039;SDS011;30778;53.574;7.770;2023-12-14T16:09:27;18.75;;;6.97;;
45039;SDS011;30778;53.574;7.770;2023-12-14T16:11:53;15.05;;;6.82;;
45039;SDS011;30778;53.574;7.770;2023-12-14T16:14:18;13.82;;;6.88;;
45039;SDS011;30778;53.574;7.770;2023-12-14T16:16:44;22.63;;;8.93;;
45039;SDS011;30778;53.574;7.770;2023-12-14T16:19:09;13.63;;;7.55;;
45039;SDS011;30778;53.574;7.770;2023-12-14T16:21:35;12.02;;;6.18;;
45039;SDS011;30778;53.574;7.770;2023-12-14T16:24:03;14.82;;;6.65;;
45039;SDS011;30778;53.574;7.770;2023-12-14T16:26:31;19.83;;;8.27;;
45039;SDS011;30778;53.574;7.770;2023-12-14T16:31:28;18.20;;;6.30;;
45039;SDS011;30778;53.574;7.770;2023-12-14T16:33:54;15.40;;;6.22;;
45039;SDS011;30778;53.574;7.770;2023-12-14T16:36:20;14.63;;;6.57;;
45039;SDS011;30778;53.574;7.770;2023-12-14T16:38:46;16.58;;;6.65;;
45039;SDS011;30778;53.574;7.770;2023-12-14T16:41:12;17.13;;;7.13;;
45039;SDS011;30778;53.574;7.770;2023-12-14T16:43:37;14.73;;;6.43;;
45039;SDS011;30778;53.574;7.770;2023-12-14T16:46:03;14.10;;;6.57;;
45039;SDS011;30778;53.574;7.770;2023-12-14T16:48:29;14.23;;;5.85;;
45039;SDS011;30778;53.574;7.770;2023-12-14T16:50:54;14.88;;;6.95;;
45039;SDS011;30778;53.574;7.770;2023-12-14T16:53:20;16.35;;;6.38;;
45039;SDS011;30778;53.574;7.770;2023-12-14T16:55:49;15.15;;;6.70;;
45039;SDS011;30778;53.574;7.770;2023-12-14T16:58:23;20.20;;;7.10;;
45039;SDS011;30778;53.574;7.770;2023-12-14T17:00:49;18.13;;;7.00;;
45039;SDS011;30778;53.574;7.770;2023-12-14T17:03:17;17.67;;;7.70;;
45039;SDS011;30778;53.574;7.770;2023-12-14T17:05:42;14.82;;;5.90;;
45039;SDS011;30778;53.574;7.770;2023-12-14T17:08:07;18.17;;;7.72;;
45039;SDS011;30778;53.574;7.770;2023-12-14T17:10:33;17.85;;;7.57;;
45039;SDS011;30778;53.574;7.770;2023-12-14T17:12:58;16.02;;;8.52;;
45039;SDS011;30778;53.574;7.770;2023-12-14T17:15:24;21.65;;;8.60;;
45039;SDS011;30778;53.574;7.770;2023-12-14T17:17:49;19.95;;;7.53;;
45039;SDS011;30778;53.574;7.770;2023-12-14T17:20:15;22.17;;;8.88;;
45039;SDS011;30778;53.574;7.770;2023-12-14T17:22:40;14.55;;;8.27;;
45039;SDS011;30778;53.574;7.770;2023-12-14T17:25:06;17.42;;;8.98;;
45039;SDS011;30778;53.574;7.770;2023-12-14T17:27:32;21.52;;;9.70;;
45039;SDS011;30778;53.574;7.770;2023-12-14T17:29:58;23.63;;;10.88;;
45039;SDS011;30778;53.574;7.770;2023-12-14T17:32:24;24.38;;;10.60;;
45039;SDS011;30778;53.574;7.770;2023-12-14T17:34:49;25.00;;;9.57;;
45039;SDS011;30778;53.574;7.770;2023-12-14T17:37:14;25.80;;;10.10;;
45039;SDS011;30778;53.574;7.770;2023-12-14T17:39:41;24.58;;;9.38;;
45039;SDS011;30778;53.574;7.770;2023-12-14T17:42:06;17.10;;;8.40;;
45039;SDS011;30778;53.574;7.770;2023-12-14T17:44:32;12.95;;;7.22;;
45039;SDS011;30778;53.574;7.770;2023-12-14T17:46:58;22.35;;;8.88;;
45039;SDS011;30778;53.574;7.770;2023-12-14T17:49:23;21.17;;;8.68;;
45039;SDS011;30778;53.574;7.770;2023-12-14T17:51:49;27.90;;;8.15;;
45039;SDS011;30778;53.574;7.770;2023-12-14T17:54:14;18.80;;;6.90;;
45039;SDS011;30778;53.574;7.770;2023-12-14T17:56:40;19.63;;;8.80;;
45039;SDS011;30778;53.574;7.770;2023-12-14T17:59:05;14.38;;;7.20;;
45039;SDS011;30778;53.574;7.770;2023-12-14T18:01:31;17.45;;;6.57;;
45039;SDS011;30778;53.574;7.770;2023-12-14T18:03:56;20.20;;;7.93;;
45039;SDS011;30778;53.574;7.770;2023-12-14T18:06:22;20.17;;;8.60;;
45039;SDS011;30778;53.574;7.770;2023-12-14T18:08:47;24.30;;;8.27;;
45039;SDS011;30778;53.574;7.770;2023-12-14T18:11:13;19.50;;;8.15;;
45039;SDS011;30778;53.574;7.770;2023-12-14T18:13:38;18.38;;;8.13;;
45039;SDS011;30778;53.574;7.770;2023-12-14T18:16:05;20.08;;;7.78;;
45039;SDS011;30778;53.574;7.770;2023-12-14T18:18:31;17.17;;;7.93;;
45039;SDS011;30778;53.574;7.770;2023-12-14T18:20:57;16.67;;;7.32;;
45039;SDS011;30778;53.574;7.770;2023-12-14T18:23:22;22.67;;;10.20;;
45039;SDS011;30778;53.574;7.770;2023-12-14T18:25:48;15.38;;;8.32;;
45039;SDS011;30778;53.574;7.770;2023-12-14T18:28:14;25.65;;;8.02;;
45039;SDS011;30778;53.574;7.770;2023-12-14T18:30:40;20.13;;;8.32;;
45039;SDS011;30778;53.574;7.770;2023-12-14T18:33:06;18.23;;;9.23;;
45039;SDS011;30778;53.574;7.770;2023-12-14T18:35:32;21.88;;;9.40;;
45039;SDS011;30778;53.574;7.770;2023-12-14T18:37:57;22.17;;;9.30;;
45039;SDS011;30778;53.574;7.770;2023-12-14T18:40:23;56.22;;;27.10;;
45039;SDS011;30778;53.574;7.770;2023-12-14T18:42:50;18.42;;;9.40;;
45039;SDS011;30778;53.574;7.770;2023-12-14T18:45:17;22.65;;;9.77;;
45039;SDS011;30778;53.574;7.770;2023-12-14T18:47:43;23.85;;;9.57;;
45039;SDS011;30778;53.574;7.770;2023-12-14T18:50:09;24.02;;;8.43;;
45039;SDS011;30778;53.574;7.770;2023-12-14T18:52:35;21.27;;;9.85;;
45039;SDS011;30778;53.574;7.770;2023-12-14T18:55:00;20.40;;;10.05;;
45039;SDS011;30778;53.574;7.770;2023-12-14T18:57:25;23.38;;;10.48;;
45039;SDS011;30778;53.574;7.770;2023-12-14T18:59:51;24.25;;;10.43;;
45039;SDS011;30778;53.574;7.770;2023-12-14T19:02:16;18.55;;;8.70;;
45039;SDS011;30778;53.574;7.770;2023-12-14T19:04:42;26.08;;;10.25;;
45039;SDS011;30778;53.574;7.770;2023-12-14T19:07:07;24.92;;;10.40;;
45039;SDS011;30778;53.574;7.770;2023-12-14T19:09:33;21.80;;;8.65;;
45039;SDS011;30778;53.574;7.770;2023-12-14T19:11:58;18.80;;;8.35;;
45039;SDS011;30778;53.574;7.770;2023-12-14T19:14:24;25.45;;;10.27;;
45039;SDS011;30778;53.574;7.770;2023-12-14T19:16:50;21.75;;;9.38;;
45039;SDS011;30778;53.574;7.770;2023-12-14T19:19:16;16.55;;;8.68;;
45039;SDS011;30778;53.574;7.770;2023-12-14T19:21:42;17.85;;;7.95;;
45039;SDS011;30778;53.574;7.770;2023-12-14T19:24:09;25.95;;;9.02;;
45039;SDS011;30778;53.574;7.770;2023-12-14T19:26:35;21.25;;;9.02;;
45039;SDS011;30778;53.574;7.770;2023-12-14T19:29:01;23.92;;;9.30;;
45039;SDS011;30778;53.574;7.770;2023-12-14T19:31:26;24.42;;;9.63;;
45039;SDS011;30778;53.574;7.770;2023-12-14T19:33:52;24.10;;;10.65;;
45039;SDS011;30778;53.574;7.770;2023-12-14T19:36:18;23.52;;;10.35;;
45039;SDS011;30778;53.574;7.770;2023-12-14T19:38:44;26.05;;;10.43;;
45039;SDS011;30778;53.574;7.770;2023-12-14T19:41:11;23.85;;;10.07;;
45039;SDS011;30778;53.574;7.770;2023-12-14T19:43:37;23.00;;;9.75;;
45039;SDS011;30778;53.574;7.770;2023-12-14T19:46:04;21.33;;;8.45;;
45039;SDS011;30778;53.574;7.770;2023-12-14T19:48:31;23.15;;;9.65;;
45039;SDS011;30778;53.574;7.770;2023-12-14T19:50:57;23.33;;;10.60;;
45039;SDS011;30778;53.574;7.770;2023-12-14T19:53:24;23.52;;;10.20;;
45039;SDS011;30778;53.574;7.770;2023-12-14T19:55:49;19.27;;;9.95;;
45039;SDS011;30778;53.574;7.770;2023-12-14T19:58:17;23.77;;;9.70;;
45039;SDS011;30778;53.574;7.770;2023-12-14T20:00:42;19.33;;;8.65;;
45039;SDS011;30778;53.574;7.770;2023-12-14T20:03:09;23.13;;;9.95;;
45039;SDS011;30778;53.574;7.770;2023-12-14T20:05:36;24.50;;;9.52;;
45039;SDS011;30778;53.574;7.770;2023-12-14T20:08:05;24.58;;;9.93;;
45039;SDS011;30778;53.574;7.770;2023-12-14T20:10:32;21.95;;;8.50;;
45039;SDS011;30778;53.574;7.770;2023-12-14T20:12:57;19.50;;;8.95;;
45039;SDS011;30778;53.574;7.770;2023-12-14T20:15:23;20.17;;;9.02;;
45039;SDS011;30778;53.574;7.770;2023-12-14T20:17:49;19.73;;;9.18;;
45039;SDS011;30778;53.574;7.770;2023-12-14T20:20:14;22.77;;;10.27;;
45039;SDS011;30778;53.574;7.770;2023-12-14T20:22:40;21.55;;;10.13;;
45039;SDS011;30778;53.574;7.770;2023-12-14T20:25:06;21.67;;;9.45;;
45039;SDS011;30778;53.574;7.770;2023-12-14T20:27:33;20.85;;;9.68;;
45039;SDS011;30778;53.574;7.770;2023-12-14T20:29:58;16.27;;;9.25;;
45039;SDS011;30778;53.574;7.770;2023-12-14T20:32:28;20.73;;;9.20;;
45039;SDS011;30778;53.574;7.770;2023-12-14T20:34:54;22.38;;;8.45;;
45039;SDS011;30778;53.574;7.770;2023-12-14T20:37:19;19.83;;;8.05;;
45039;SDS011;30778;53.574;7.770;2023-12-14T20:39:45;21.95;;;9.35;;
45039;SDS011;30778;53.574;7.770;2023-12-14T20:42:10;34.45;;;14.23;;
45039;SDS011;30778;53.574;7.770;2023-12-14T20:44:36;26.40;;;10.32;;
45039;SDS011;30778;53.574;7.770;2023-12-14T20:47:01;20.15;;;9.25;;
45039;SDS011;30778;53.574;7.770;2023-12-14T20:49:26;20.70;;;8.80;;
45039;SDS011;30778;53.574;7.770;2023-12-14T20:51:52;20.63;;;9.35;;
45039;SDS011;30778;53.574;7.770;2023-12-14T20:54:18;22.88;;;9.30;;
45039;SDS011;30778;53.574;7.770;2023-12-14T20:56:43;22.52;;;8.90;;
45039;SDS011;30778;53.574;7.770;2023-12-14T20:59:08;19.85;;;9.10;;
45039;SDS011;30778;53.574;7.770;2023-12-14T21:01:34;23.23;;;9.40;;
45039;SDS011;30778;53.574;7.770;2023-12-14T21:03:59;16.42;;;7.40;;
45039;SDS011;30778;53.574;7.770;2023-12-14T21:06:25;19.85;;;8.30;;
45039;SDS011;30778;53.574;7.770;2023-12-14T21:08:50;26.88;;;10.13;;
45039;SDS011;30778;53.574;7.770;2023-12-14T21:11:16;19.85;;;8.45;;
45039;SDS011;30778;53.574;7.770;2023-12-14T21:13:57;23.15;;;9.45;;
45039;SDS011;30778;53.574;7.770;2023-12-14T21:16:23;19.48;;;8.88;;
45039;SDS011;30778;53.574;7.770;2023-12-14T21:18:48;15.98;;;8.40;;
45039;SDS011;30778;53.574;7.770;2023-12-14T21:21:14;24.52;;;8.80;;
45039;SDS011;30778;53.574;7.770;2023-12-14T21:23:39;25.58;;;10.35;;
45039;SDS011;30778;53.574;7.770;2023-12-14T21:26:05;19.88;;;8.65;;
45039;SDS011;30778;53.574;7.770;2023-12-14T21:28:33;19.13;;;9.70;;
45039;SDS011;30778;53.574;7.770;2023-12-14T21:31:00;16.95;;;8.65;;
45039;SDS011;30778;53.574;7.770;2023-12-14T21:33:26;22.27;;;8.70;;
45039;SDS011;30778;53.574;7.770;2023-12-14T21:35:52;20.13;;;9.40;;
45039;SDS011;30778;53.574;7.770;2023-12-14T21:38:21;17.98;;;9.73;;
45039;SDS011;30778;53.574;7.770;2023-12-14T21:40:47;17.50;;;7.90;;
45039;SDS011;30778;53.574;7.770;2023-12-14T21:43:14;19.20;;;8.18;;
45039;SDS011;30778;53.574;7.770;2023-12-14T21:45:40;19.55;;;8.73;;
45039;SDS011;30778;53.574;7.770;2023-12-14T21:48:06;19.08;;;8.32;;
45039;SDS011;30778;53.574;7.770;2023-12-14T21:50:32;35.22;;;10.27;;
45039;SDS011;30778;53.574;7.770;2023-12-14T21:52:58;19.92;;;8.70;;
45039;SDS011;30778;53.574;7.770;2023-12-14T21:55:23;17.60;;;8.63;;
45039;SDS011;30778;53.574;7.770;2023-12-14T21:57:49;22.50;;;8.73;;
45039;SDS011;30778;53.574;7.770;2023-12-14T22:00:15;17.17;;;7.93;;
45039;SDS011;30778;53.574;7.770;2023-12-14T22:02:41;24.98;;;9.20;;
45039;SDS011;30778;53.574;7.770;2023-12-14T22:05:06;17.02;;;9.77;;
45039;SDS011;30778;53.574;7.770;2023-12-14T22:07:32;16.35;;;8.20;;
45039;SDS011;30778;53.574;7.770;2023-12-14T22:09:57;17.67;;;8.73;;
45039;SDS011;30778;53.574;7.770;2023-12-14T22:12:24;24.35;;;9.32;;
45039;SDS011;30778;53.574;7.770;2023-12-14T22:14:50;19.52;;;8.70;;
45039;SDS011;30778;53.574;7.770;2023-12-14T22:17:15;22.55;;;9.15;;
45039;SDS011;30778;53.574;7.770;2023-12-14T22:19:41;20.00;;;8.40;;
45039;SDS011;30778;53.574;7.770;2023-12-14T22:22:06;17.20;;;8.80;;
45039;SDS011;30778;53.574;7.770;2023-12-14T22:24:32;21.17;;;9.93;;
45039;SDS011;30778;53.574;7.770;2023-12-14T22:26:57;18.15;;;8.70;;
45039;SDS011;30778;53.574;7.770;2023-12-14T22:29:25;23.88;;;9.25;;
45039;SDS011;30778;53.574;7.770;2023-12-14T22:31:50;20.92;;;9.52;;
45039;SDS011;30778;53.574;7.770;2023-12-14T22:34:16;15.43;;;7.97;;
45039;SDS011;30778;53.574;7.770;2023-12-14T22:36:41;20.85;;;8.68;;
45039;SDS011;30778;53.574;7.770;2023-12-14T22:39:07;19.45;;;9.38;;
45039;SDS011;30778;53.574;7.770;2023-12-14T22:41:33;26.05;;;9.23;;
45039;SDS011;30778;53.574;7.770;2023-12-14T22:43:58;22.17;;;10.15;;
45039;SDS011;30778;53.574;7.770;2023-12-14T22:46:24;21.83;;;9.27;;
45039;SDS011;30778;53.574;7.770;2023-12-14T22:48:49;19.45;;;9.85;;
45039;SDS011;30778;53.574;7.770;2023-12-14T22:51:16;21.67;;;10.18;;
45039;SDS011;30778;53.574;7.770;2023-12-14T22:53:43;18.63;;;9.13;;
45039;SDS011;30778;53.574;7.770;2023-12-14T22:56:09;20.35;;;9.10;;
45039;SDS011;30778;53.574;7.770;2023-12-14T22:58:34;20.55;;;9.18;;
45039;SDS011;30778;53.574;7.770;2023-12-14T23:01:00;17.88;;;8.15;;
45039;SDS011;30778;53.574;7.770;2023-12-14T23:03:25;19.23;;;8.38;;
45039;SDS011;30778;53.574;7.770;2023-12-14T23:05:51;23.30;;;9.98;;
45039;SDS011;30778;53.574;7.770;2023-12-14T23:08:16;19.60;;;9.10;;
45039;SDS011;30778;53.574;7.770;2023-12-14T23:10:42;22.02;;;9.75;;
45039;SDS011;30778;53.574;7.770;2023-12-14T23:13:08;26.75;;;9.85;;
45039;SDS011;30778;53.574;7.770;2023-12-14T23:15:34;21.08;;;9.38;;
45039;SDS011;30778;53.574;7.770;2023-12-14T23:17:59;21.75;;;9.85;;
45039;SDS011;30778;53.574;7.770;2023-12-14T23:20:25;18.75;;;9.15;;
45039;SDS011;30778;53.574;7.770;2023-12-14T23:22:50;20.42;;;9.15;;
45039;SDS011;30778;53.574;7.770;2023-12-14T23:25:16;22.30;;;9.90;;
45039;SDS011;30778;53.574;7.770;2023-12-14T23:27:41;25.70;;;10.23;;
45039;SDS011;30778;53.574;7.770;2023-12-14T23:30:07;25.23;;;9.75;;
45039;SDS011;30778;53.574;7.770;2023-12-14T23:32:32;20.48;;;10.88;;
45039;SDS011;30778;53.574;7.770;2023-12-14T23:34:59;19.95;;;9.27;;
45039;SDS011;30778;53.574;7.770;2023-12-14T23:37:24;23.50;;;10.68;;
45039;SDS011;30778;53.574;7.770;2023-12-14T23:39:50;22.30;;;9.93;;
45039;SDS011;30778;53.574;7.770;2023-12-14T23:42:16;23.42;;;9.75;;
45039;SDS011;30778;53.574;7.770;2023-12-14T23:44:41;22.95;;;9.40;;